sensor_id;sensor_type;location;lat;lon;timestamp;pressure;altitude;pressure_sealevel;temperature;humidity
49216;BME280;45943;53.148;8.204;2023-02-14T00:01:34;103758.31;;;7.36;100.00
49216;BME280;45943;53.148;8.204;2023-02-14T00:04:00;103752.13;;;7.34;100.00
49216;BME280;45943;53.148;8.204;2023-02-14T00:06:27;103758.50;;;7.27;100.00
49216;BME280;45943;53.148;8.204;2023-02-14T00:08:53;103756.84;;;7.21;100.00
49216;BME280;45943;53.148;8.204;2023-02-14T00:11:19;103756.16;;;7.11;100.00
49216;BME280;45943;53.148;8.204;2023-02-14T00:13:45;103751.94;;;7.00;100.00
49216;BME280;45943;53.148;8.204;2023-02-14T00:16:30;103760.06;;;6.92;100.00
49216;BME280;45943;53.148;8.204;2023-02-14T00:18:57;103753.03;;;6.86;100.00
49216;BME280;45943;53.148;8.204;2023-02-14T00:21:29;103747.03;;;6.75;100.00
49216;BME280;45943;53.148;8.204;2023-02-14T00:24:06;103746.34;;;6.64;100.00
49216;BME280;45943;53.148;8.204;2023-02-14T00:26:37;103753.53;;;6.60;100.00
49216;BME280;45943;53.148;8.204;2023-02-14T00:29:03;103751.75;;;6.61;100.00
49216;BME280;45943;53.148;8.204;2023-02-14T00:31:30;103745.53;;;6.60;100.00
49216;BME280;45943;53.148;8.204;2023-02-14T00:33:56;103747.44;;;6.52;100.00
49216;BME280;45943;53.148;8.204;2023-02-14T00:36:22;103749.13;;;6.56;100.00
49216;BME280;45943;53.148;8.204;2023-02-14T00:38:48;103739.34;;;6.57;100.00
49216;BME280;45943;53.148;8.204;2023-02-14T00:41:14;103740.22;;;6.57;100.00
49216;BME280;45943;53.148;8.204;2023-02-14T00:43:44;103735.81;;;6.56;100.00
49216;BME280;45943;53.148;8.204;2023-02-14T00:46:11;103731.44;;;6.52;100.00
49216;BME280;45943;53.148;8.204;2023-02-14T00:48:38;103735.13;;;6.45;100.00
49216;BME280;45943;53.148;8.204;2023-02-14T00:51:04;103733.38;;;6.43;100.00
49216;BME280;45943;53.148;8.204;2023-02-14T00:53:30;103728.00;;;6.46;100.00
49216;BME280;45943;53.148;8.204;2023-02-14T00:55:56;103742.13;;;6.51;100.00
49216;BME280;45943;53.148;8.204;2023-02-14T00:58:22;103737.63;;;6.54;100.00
49216;BME280;45943;53.148;8.204;2023-02-14T01:00:48;103743.94;;;6.49;100.00
49216;BME280;45943;53.148;8.204;2023-02-14T01:03:13;103738.63;;;6.47;100.00
49216;BME280;45943;53.148;8.204;2023-02-14T01:05:40;103741.41;;;6.41;100.00
49216;BME280;45943;53.148;8.204;2023-02-14T01:08:06;103741.41;;;6.41;100.00
49216;BME280;45943;53.148;8.204;2023-02-14T01:10:32;103744.00;;;6.46;100.00
49216;BME280;45943;53.148;8.204;2023-02-14T01:12:58;103736.91;;;6.45;100.00
49216;BME280;45943;53.148;8.204;2023-02-14T01:15:24;103737.84;;;6.42;100.00
49216;BME280;45943;53.148;8.204;2023-02-14T01:17:50;103732.56;;;6.38;100.00
49216;BME280;45943;53.148;8.204;2023-02-14T01:20:16;103734.34;;;6.37;100.00
49216;BME280;45943;53.148;8.204;2023-02-14T01:22:42;103727.25;;;6.39;100.00
49216;BME280;45943;53.148;8.204;2023-02-14T01:25:08;103735.22;;;6.39;100.00
49216;BME280;45943;53.148;8.204;2023-02-14T01:27:34;103730.00;;;6.33;100.00
49216;BME280;45943;53.148;8.204;2023-02-14T01:30:00;103724.72;;;6.30;100.00
49216;BME280;45943;53.148;8.204;2023-02-14T01:32:28;103730.06;;;6.28;100.00
49216;BME280;45943;53.148;8.204;2023-02-14T01:34:55;103738.06;;;6.30;100.00
49216;BME280;45943;53.148;8.204;2023-02-14T01:37:21;103730.00;;;6.33;100.00
49216;BME280;45943;53.148;8.204;2023-02-14T01:39:47;103729.91;;;6.38;100.00
49216;BME280;45943;53.148;8.204;2023-02-14T01:42:13;103729.91;;;6.38;100.00
49216;BME280;45943;53.148;8.204;2023-02-14T01:47:06;103732.63;;;6.35;100.00
49216;BME280;45943;53.148;8.204;2023-02-14T01:49:36;103725.44;;;6.38;100.00
49216;BME280;45943;53.148;8.204;2023-02-14T01:52:10;103727.16;;;6.44;100.00
49216;BME280;45943;53.148;8.204;2023-02-14T01:54:43;103728.13;;;6.38;100.00
49216;BME280;45943;53.148;8.204;2023-02-14T01:57:14;103721.19;;;6.29;100.00
49216;BME280;45943;53.148;8.204;2023-02-14T01:59:46;103714.97;;;6.27;100.00
49216;BME280;45943;53.148;8.204;2023-02-14T02:02:17;103713.25;;;6.25;100.00
49216;BME280;45943;53.148;8.204;2023-02-14T02:04:48;103709.75;;;6.21;100.00
49216;BME280;45943;53.148;8.204;2023-02-14T02:07:20;103701.75;;;6.21;100.00
49216;BME280;45943;53.148;8.204;2023-02-14T02:09:56;103703.59;;;6.16;100.00
49216;BME280;45943;53.148;8.204;2023-02-14T02:12:25;103704.44;;;6.20;100.00
49216;BME280;45943;53.148;8.204;2023-02-14T02:14:52;103700.91;;;6.18;100.00
49216;BME280;45943;53.148;8.204;2023-02-14T02:23:05;103697.44;;;6.14;100.00
49216;BME280;45943;53.148;8.204;2023-02-14T02:31:20;103696.78;;;6.00;100.00
49216;BME280;45943;53.148;8.204;2023-02-14T02:47:46;103688.03;;;5.92;100.00
49216;BME280;45943;53.148;8.204;2023-02-14T02:50:32;103687.09;;;5.90;100.00
49216;BME280;45943;53.148;8.204;2023-02-14T02:53:25;103684.41;;;5.94;100.00
49216;BME280;45943;53.148;8.204;2023-02-14T02:56:31;103693.38;;;5.87;100.00
49216;BME280;45943;53.148;8.204;2023-02-14T02:59:25;103680.84;;;5.95;100.00
49216;BME280;45943;53.148;8.204;2023-02-14T03:02:02;103681.69;;;5.97;100.00
49216;BME280;45943;53.148;8.204;2023-02-14T03:04:51;103679.88;;;5.99;100.00
49216;BME280;45943;53.148;8.204;2023-02-14T03:10:05;103668.47;;;5.93;100.00
49216;BME280;45943;53.148;8.204;2023-02-14T03:15:22;103661.38;;;5.89;100.00
49216;BME280;45943;53.148;8.204;2023-02-14T03:26:34;103666.44;;;6.07;100.00
49216;BME280;45943;53.148;8.204;2023-02-14T03:32:08;103656.63;;;6.09;100.00
49216;BME280;45943;53.148;8.204;2023-02-14T03:34:37;103658.28;;;6.16;100.00
49216;BME280;45943;53.148;8.204;2023-02-14T03:40:21;103650.09;;;6.30;100.00
49216;BME280;45943;53.148;8.204;2023-02-14T03:42:56;103638.47;;;6.32;100.00
49216;BME280;45943;53.148;8.204;2023-02-14T03:45:32;103647.25;;;6.39;100.00
49216;BME280;45943;53.148;8.204;2023-02-14T03:48:03;103647.19;;;6.42;100.00
49216;BME280;45943;53.148;8.204;2023-02-14T03:50:32;103640.97;;;6.42;100.00
49216;BME280;45943;53.148;8.204;2023-02-14T03:53:00;103637.47;;;6.40;100.00
49216;BME280;45943;53.148;8.204;2023-02-14T03:55:33;103630.34;;;6.39;100.00
49216;BME280;45943;53.148;8.204;2023-02-14T04:00:43;103628.59;;;6.38;100.00
49216;BME280;45943;53.148;8.204;2023-02-14T04:03:12;103632.13;;;6.40;100.00
49216;BME280;45943;53.148;8.204;2023-02-14T04:05:42;103630.34;;;6.39;100.00
49216;BME280;45943;53.148;8.204;2023-02-14T04:08:11;103633.13;;;6.34;100.00
49216;BME280;45943;53.148;8.204;2023-02-14T04:10:45;103639.38;;;6.31;100.00
49216;BME280;45943;53.148;8.204;2023-02-14T04:13:11;103630.47;;;6.32;100.00
49216;BME280;45943;53.148;8.204;2023-02-14T04:15:37;103631.25;;;6.39;100.00
49216;BME280;45943;53.148;8.204;2023-02-14T04:18:03;103627.69;;;6.40;100.00
49216;BME280;45943;53.148;8.204;2023-02-14T04:20:48;103625.00;;;6.39;100.00
49216;BME280;45943;53.148;8.204;2023-02-14T04:23:14;103625.00;;;6.39;100.00
49216;BME280;45943;53.148;8.204;2023-02-14T04:25:40;103629.47;;;6.38;100.00
49216;BME280;45943;53.148;8.204;2023-02-14T04:28:07;103627.72;;;6.37;100.00
49216;BME280;45943;53.148;8.204;2023-02-14T04:30:33;103630.34;;;6.39;100.00
49216;BME280;45943;53.148;8.204;2023-02-14T04:32:59;103624.13;;;6.38;100.00
49216;BME280;45943;53.148;8.204;2023-02-14T04:35:25;103623.31;;;6.35;100.00
49216;BME280;45943;53.148;8.204;2023-02-14T04:37:51;103624.16;;;6.37;100.00
49216;BME280;45943;53.148;8.204;2023-02-14T04:40:17;103617.94;;;6.39;100.00
49216;BME280;45943;53.148;8.204;2023-02-14T04:42:44;103612.56;;;6.41;100.00
49216;BME280;45943;53.148;8.204;2023-02-14T04:45:10;103631.25;;;6.39;100.00
49216;BME280;45943;53.148;8.204;2023-02-14T04:47:37;103623.31;;;6.35;100.00
49216;BME280;45943;53.148;8.204;2023-02-14T04:50:03;103622.41;;;6.36;100.00
49216;BME280;45943;53.148;8.204;2023-02-14T04:52:29;103609.06;;;6.37;100.00
49216;BME280;45943;53.148;8.204;2023-02-14T04:54:55;103623.25;;;6.38;100.00
49216;BME280;45943;53.148;8.204;2023-02-14T04:57:21;103616.31;;;6.30;100.00
49216;BME280;45943;53.148;8.204;2023-02-14T04:59:47;103615.41;;;6.31;100.00
49216;BME280;45943;53.148;8.204;2023-02-14T05:02:13;103616.28;;;6.32;100.00
49216;BME280;45943;53.148;8.204;2023-02-14T05:04:39;103604.69;;;6.33;100.00
49216;BME280;45943;53.148;8.204;2023-02-14T05:07:05;103610.00;;;6.35;100.00
49216;BME280;45943;53.148;8.204;2023-02-14T05:09:31;103615.25;;;6.38;100.00
49216;BME280;45943;53.148;8.204;2023-02-14T05:11:57;103598.47;;;6.34;100.00
49216;BME280;45943;53.148;8.204;2023-02-14T05:14:23;103606.53;;;6.31;100.00
49216;BME280;45943;53.148;8.204;2023-02-14T05:16:49;103600.31;;;6.29;100.00
49216;BME280;45943;53.148;8.204;2023-02-14T05:19:15;103599.44;;;6.28;100.00
49216;BME280;45943;53.148;8.204;2023-02-14T05:21:41;103598.56;;;6.28;100.00
49216;BME280;45943;53.148;8.204;2023-02-14T05:24:07;103602.09;;;6.30;100.00
49216;BME280;45943;53.148;8.204;2023-02-14T05:26:33;103594.97;;;6.30;100.00
49216;BME280;45943;53.148;8.204;2023-02-14T05:28:59;103590.63;;;6.25;100.00
49216;BME280;45943;53.148;8.204;2023-02-14T05:31:25;103588.94;;;6.19;100.00
49216;BME280;45943;53.148;8.204;2023-02-14T05:33:51;103582.84;;;6.14;100.00
49216;BME280;45943;53.148;8.204;2023-02-14T05:36:17;103577.53;;;6.13;100.00
49216;BME280;45943;53.148;8.204;2023-02-14T05:38:43;103582.97;;;6.07;100.00
49216;BME280;45943;53.148;8.204;2023-02-14T05:41:09;103582.19;;;6.01;100.00
49216;BME280;45943;53.148;8.204;2023-02-14T05:43:35;103581.34;;;5.98;100.00
49216;BME280;45943;53.148;8.204;2023-02-14T05:46:01;103581.34;;;5.98;100.00
49216;BME280;45943;53.148;8.204;2023-02-14T05:48:26;103581.41;;;5.95;100.00
49216;BME280;45943;53.148;8.204;2023-02-14T05:50:52;103580.59;;;5.91;100.00
49216;BME280;45943;53.148;8.204;2023-02-14T05:53:18;103575.22;;;5.93;100.00
49216;BME280;45943;53.148;8.204;2023-02-14T05:55:44;103579.53;;;5.98;100.00
49216;BME280;45943;53.148;8.204;2023-02-14T05:58:11;103572.44;;;6.00;100.00
49216;BME280;45943;53.148;8.204;2023-02-14T06:00:37;103575.09;;;5.99;100.00
49216;BME280;45943;53.148;8.204;2023-02-14T06:03:03;103583.09;;;5.99;100.00
49216;BME280;45943;53.148;8.204;2023-02-14T06:05:29;103574.25;;;5.97;100.00
49216;BME280;45943;53.148;8.204;2023-02-14T06:07:55;103576.88;;;5.98;100.00
49216;BME280;45943;53.148;8.204;2023-02-14T06:10:22;103583.97;;;5.99;100.00
49216;BME280;45943;53.148;8.204;2023-02-14T06:12:50;103576.88;;;5.98;100.00
49216;BME280;45943;53.148;8.204;2023-02-14T06:15:17;103585.84;;;5.94;100.00
49216;BME280;45943;53.148;8.204;2023-02-14T06:17:44;103589.38;;;5.95;100.00
49216;BME280;45943;53.148;8.204;2023-02-14T06:20:12;103595.66;;;5.92;100.00
49216;BME280;45943;53.148;8.204;2023-02-14T06:22:38;103597.34;;;5.96;100.00
49216;BME280;45943;53.148;8.204;2023-02-14T06:25:04;103588.50;;;5.94;100.00
49216;BME280;45943;53.148;8.204;2023-02-14T06:27:31;103579.63;;;5.94;100.00
49216;BME280;45943;53.148;8.204;2023-02-14T06:29:57;103584.16;;;5.87;100.00
49216;BME280;45943;53.148;8.204;2023-02-14T06:32:23;103593.09;;;5.83;100.00
49216;BME280;45943;53.148;8.204;2023-02-14T06:34:49;103593.00;;;5.89;100.00
49216;BME280;45943;53.148;8.204;2023-02-14T06:37:15;103591.25;;;5.91;100.00
49216;BME280;45943;53.148;8.204;2023-02-14T06:39:41;103593.03;;;5.91;100.00
49216;BME280;45943;53.148;8.204;2023-02-14T06:42:07;103601.88;;;5.88;100.00
49216;BME280;45943;53.148;8.204;2023-02-14T06:44:33;103600.13;;;5.87;100.00
49216;BME280;45943;53.148;8.204;2023-02-14T06:46:59;103604.66;;;5.84;100.00
49216;BME280;45943;53.148;8.204;2023-02-14T06:49:25;103604.69;;;5.81;100.00
49216;BME280;45943;53.148;8.204;2023-02-14T06:51:51;103607.38;;;5.79;100.00
49216;BME280;45943;53.148;8.204;2023-02-14T06:54:17;103603.00;;;5.75;100.00
49216;BME280;45943;53.148;8.204;2023-02-14T06:56:43;103602.09;;;5.76;100.00
49216;BME280;45943;53.148;8.204;2023-02-14T06:59:09;103600.34;;;5.75;100.00
49216;BME280;45943;53.148;8.204;2023-02-14T07:01:35;103600.44;;;5.69;100.00
49216;BME280;45943;53.148;8.204;2023-02-14T07:04:01;103602.25;;;5.67;100.00
49216;BME280;45943;53.148;8.204;2023-02-14T07:06:27;103600.47;;;5.67;100.00
49216;BME280;45943;53.148;8.204;2023-02-14T07:08:53;103585.34;;;5.68;100.00
49216;BME280;45943;53.148;8.204;2023-02-14T07:11:19;103595.19;;;5.64;100.00
49216;BME280;45943;53.148;8.204;2023-02-14T07:13:45;103593.34;;;5.68;100.00
49216;BME280;45943;53.148;8.204;2023-02-14T07:16:10;103595.91;;;5.75;100.00
49216;BME280;45943;53.148;8.204;2023-02-14T07:18:36;103596.69;;;5.82;100.00
49216;BME280;45943;53.148;8.204;2023-02-14T07:21:02;103594.81;;;5.87;100.00
49216;BME280;45943;53.148;8.204;2023-02-14T07:23:28;103587.75;;;5.85;100.00
49216;BME280;45943;53.148;8.204;2023-02-14T07:25:54;103580.75;;;5.78;100.00
49216;BME280;45943;53.148;8.204;2023-02-14T07:28:21;103585.19;;;5.79;100.00
49216;BME280;45943;53.148;8.204;2023-02-14T07:30:47;103585.25;;;5.75;100.00
49216;BME280;45943;53.148;8.204;2023-02-14T07:33:13;103576.34;;;5.76;100.00
49216;BME280;45943;53.148;8.204;2023-02-14T07:35:38;103588.59;;;5.87;100.00
49216;BME280;45943;53.148;8.204;2023-02-14T07:38:04;103587.66;;;5.89;100.00
49216;BME280;45943;53.148;8.204;2023-02-14T07:40:30;103592.09;;;5.89;100.00
49216;BME280;45943;53.148;8.204;2023-02-14T07:42:57;103593.03;;;5.88;100.00
49216;BME280;45943;53.148;8.204;2023-02-14T07:45:23;103588.53;;;5.90;100.00
49216;BME280;45943;53.148;8.204;2023-02-14T07:47:51;103584.97;;;5.94;100.00
49216;BME280;45943;53.148;8.204;2023-02-14T07:50:19;103574.28;;;5.95;100.00
49216;BME280;45943;53.148;8.204;2023-02-14T07:52:46;103575.09;;;5.99;100.00
49216;BME280;45943;53.148;8.204;2023-02-14T07:55:12;103576.88;;;6.00;100.00
49216;BME280;45943;53.148;8.204;2023-02-14T07:57:38;103575.97;;;5.99;100.00
49216;BME280;45943;53.148;8.204;2023-02-14T08:00:05;103582.16;;;6.03;100.00
49216;BME280;45943;53.148;8.204;2023-02-14T08:02:31;103582.25;;;5.97;100.00
49216;BME280;45943;53.148;8.204;2023-02-14T08:04:57;103585.91;;;5.91;100.00
49216;BME280;45943;53.148;8.204;2023-02-14T08:07:23;103590.34;;;5.88;100.00
49216;BME280;45943;53.148;8.204;2023-02-14T08:09:49;103588.59;;;5.87;100.00
49216;BME280;45943;53.148;8.204;2023-02-14T08:12:15;103589.53;;;5.84;100.00
49216;BME280;45943;53.148;8.204;2023-02-14T08:15:00;103588.38;;;6.02;100.00
49216;BME280;45943;53.148;8.204;2023-02-14T08:17:45;103588.09;;;6.17;100.00
49216;BME280;45943;53.148;8.204;2023-02-14T08:20:11;103595.25;;;6.15;100.00
49216;BME280;45943;53.148;8.204;2023-02-14T08:22:37;103596.03;;;6.22;100.00
49216;BME280;45943;53.148;8.204;2023-02-14T08:25:03;103590.78;;;6.16;100.00
49216;BME280;45943;53.148;8.204;2023-02-14T08:27:29;103596.94;;;6.21;100.00
49216;BME280;45943;53.148;8.204;2023-02-14T08:29:55;103592.34;;;6.27;100.00
49216;BME280;45943;53.148;8.204;2023-02-14T08:32:21;103594.09;;;6.30;100.00
49216;BME280;45943;53.148;8.204;2023-02-14T08:34:47;103594.09;;;6.30;100.00
49216;BME280;45943;53.148;8.204;2023-02-14T08:37:13;103592.38;;;6.26;100.00
49216;BME280;45943;53.148;8.204;2023-02-14T08:39:39;103591.22;;;6.41;100.00
49216;BME280;45943;53.148;8.204;2023-02-14T08:42:05;103590.28;;;6.43;100.00
49216;BME280;45943;53.148;8.204;2023-02-14T08:44:31;103589.44;;;6.41;100.00
49216;BME280;45943;53.148;8.204;2023-02-14T08:46:57;103586.72;;;6.44;100.00
49216;BME280;45943;53.148;8.204;2023-02-14T08:49:24;103581.19;;;6.53;100.00
49216;BME280;45943;53.148;8.204;2023-02-14T08:51:50;103578.13;;;6.73;100.00
49216;BME280;45943;53.148;8.204;2023-02-14T08:54:16;103583.19;;;6.85;100.00
49216;BME280;45943;53.148;8.204;2023-02-14T08:56:42;103578.78;;;6.84;100.00
49216;BME280;45943;53.148;8.204;2023-02-14T08:59:08;103578.75;;;6.86;100.00
49216;BME280;45943;53.148;8.204;2023-02-14T09:01:34;103582.09;;;6.96;100.00
49216;BME280;45943;53.148;8.204;2023-02-14T09:04:01;103583.72;;;7.03;100.00
49216;BME280;45943;53.148;8.204;2023-02-14T09:06:28;103583.53;;;7.12;100.00
49216;BME280;45943;53.148;8.204;2023-02-14T09:08:54;103587.63;;;7.27;100.00
49216;BME280;45943;53.148;8.204;2023-02-14T09:11:21;103584.75;;;7.36;100.00
49216;BME280;45943;53.148;8.204;2023-02-14T09:13:49;103575.59;;;7.46;100.00
49216;BME280;45943;53.148;8.204;2023-02-14T09:16:18;103574.41;;;7.59;100.00
49216;BME280;45943;53.148;8.204;2023-02-14T09:18:46;103570.66;;;7.68;100.00
49216;BME280;45943;53.148;8.204;2023-02-14T09:21:15;103572.03;;;7.83;100.00
49216;BME280;45943;53.148;8.204;2023-02-14T09:23:43;103574.72;;;7.83;100.00
49216;BME280;45943;53.148;8.204;2023-02-14T09:26:10;103566.47;;;7.92;100.00
49216;BME280;45943;53.148;8.204;2023-02-14T09:28:37;103577.94;;;7.97;100.00
49216;BME280;45943;53.148;8.204;2023-02-14T09:31:22;103575.91;;;8.07;100.00
49216;BME280;45943;53.148;8.204;2023-02-14T09:33:50;103575.91;;;8.07;100.00
49216;BME280;45943;53.148;8.204;2023-02-14T09:36:16;103573.03;;;8.13;100.00
49216;BME280;45943;53.148;8.204;2023-02-14T09:38:45;103578.19;;;8.20;100.00
49216;BME280;45943;53.148;8.204;2023-02-14T09:46:44;103575.06;;;8.70;100.00
49216;BME280;45943;53.148;8.204;2023-02-14T09:49:16;103577.56;;;8.76;100.00
49216;BME280;45943;53.148;8.204;2023-02-14T09:51:50;103574.19;;;8.69;100.00
49216;BME280;45943;53.148;8.204;2023-02-14T09:54:19;103575.06;;;8.70;100.00
49216;BME280;45943;53.148;8.204;2023-02-14T09:56:53;103572.34;;;8.71;100.00
49216;BME280;45943;53.148;8.204;2023-02-14T09:59:30;103577.94;;;8.93;100.00
49216;BME280;45943;53.148;8.204;2023-02-14T10:12:55;103588.41;;;9.30;100.00
49216;BME280;45943;53.148;8.204;2023-02-14T10:15:30;103586.53;;;9.60;100.00
49216;BME280;45943;53.148;8.204;2023-02-14T10:18:06;103574.91;;;9.88;100.00
49216;BME280;45943;53.148;8.204;2023-02-14T10:20:43;103571.72;;;10.03;100.00
49216;BME280;45943;53.148;8.204;2023-02-14T10:23:23;103577.78;;;10.08;100.00
49216;BME280;45943;53.148;8.204;2023-02-14T10:28:29;103559.13;;;10.30;100.00
49216;BME280;45943;53.148;8.204;2023-02-14T10:33:48;103557.72;;;10.68;100.00
49216;BME280;45943;53.148;8.204;2023-02-14T10:36:20;103556.03;;;10.89;100.00
49216;BME280;45943;53.148;8.204;2023-02-14T10:39:05;103550.44;;;10.95;100.00
49216;BME280;45943;53.148;8.204;2023-02-14T10:41:50;103562.16;;;11.16;100.00
49216;BME280;45943;53.148;8.204;2023-02-14T10:47:06;103546.75;;;11.43;100.00
49216;BME280;45943;53.148;8.204;2023-02-14T10:52:47;103552.97;;;11.65;100.00
49216;BME280;45943;53.148;8.204;2023-02-14T10:55:21;103543.41;;;11.36;100.00
49216;BME280;45943;53.148;8.204;2023-02-14T10:58:11;103542.91;;;11.48;100.00
49216;BME280;45943;53.148;8.204;2023-02-14T11:03:23;103542.56;;;11.78;100.00
49216;BME280;45943;53.148;8.204;2023-02-14T11:05:49;103526.81;;;11.91;100.00
49216;BME280;45943;53.148;8.204;2023-02-14T11:08:25;103529.16;;;11.56;100.00
49216;BME280;45943;53.148;8.204;2023-02-14T11:13:38;103526.47;;;11.56;100.00
49216;BME280;45943;53.148;8.204;2023-02-14T11:16:08;103514.47;;;11.65;100.00
49216;BME280;45943;53.148;8.204;2023-02-14T11:18:36;103512.50;;;11.68;100.00
49216;BME280;45943;53.148;8.204;2023-02-14T11:23:34;103512.03;;;12.01;100.00
49216;BME280;45943;53.148;8.204;2023-02-14T11:26:09;103510.06;;;12.04;100.00
49216;BME280;45943;53.148;8.204;2023-02-14T11:28:45;103499.38;;;12.03;100.00
49216;BME280;45943;53.148;8.204;2023-02-14T11:31:23;103498.97;;;12.12;100.00
49216;BME280;45943;53.148;8.204;2023-02-14T11:33:53;103504.97;;;12.38;100.00
49216;BME280;45943;53.148;8.204;2023-02-14T11:36:20;103500.75;;;12.71;100.00
49216;BME280;45943;53.148;8.204;2023-02-14T11:38:53;103493.22;;;12.97;100.00
49216;BME280;45943;53.148;8.204;2023-02-14T11:41:27;103495.25;;;13.10;100.00
49216;BME280;45943;53.148;8.204;2023-02-14T11:44:14;103485.81;;;13.02;100.00
49216;BME280;45943;53.148;8.204;2023-02-14T11:46:50;103491.09;;;13.03;100.00
49216;BME280;45943;53.148;8.204;2023-02-14T11:49:28;103476.63;;;13.42;100.00
49216;BME280;45943;53.148;8.204;2023-02-14T11:52:08;103469.94;;;13.68;100.00
49216;BME280;45943;53.148;8.204;2023-02-14T11:54:37;103465.00;;;13.41;100.00
49216;BME280;45943;53.148;8.204;2023-02-14T11:57:06;103464.03;;;13.42;100.00
49216;BME280;45943;53.148;8.204;2023-02-14T11:59:39;103462.03;;;13.46;100.00
49216;BME280;45943;53.148;8.204;2023-02-14T12:07:55;103446.81;;;13.80;100.00
49216;BME280;45943;53.148;8.204;2023-02-14T12:27:05;103423.66;;;15.50;100.00
49216;BME280;45943;53.148;8.204;2023-02-14T12:29:52;103416.19;;;15.70;100.00
49216;BME280;45943;53.148;8.204;2023-02-14T12:32:23;103407.41;;;16.09;100.00
49216;BME280;45943;53.148;8.204;2023-02-14T12:35:14;103407.03;;;16.29;100.00
49216;BME280;45943;53.148;8.204;2023-02-14T12:37:49;103400.63;;;16.30;98.55
49216;BME280;45943;53.148;8.204;2023-02-14T12:40:34;103394.84;;;16.08;95.58
49216;BME280;45943;53.148;8.204;2023-02-14T12:43:11;103396.69;;;15.79;95.19
49216;BME280;45943;53.148;8.204;2023-02-14T12:55:03;103378.53;;;15.95;93.95
49216;BME280;45943;53.148;8.204;2023-02-14T13:00:27;103375.72;;;15.97;91.37
49216;BME280;45943;53.148;8.204;2023-02-14T13:11:38;103362.16;;;16.11;97.36
49216;BME280;45943;53.148;8.204;2023-02-14T13:14:15;103366.88;;;16.22;97.09
49216;BME280;45943;53.148;8.204;2023-02-14T13:17:03;103367.94;;;16.33;95.27
49216;BME280;45943;53.148;8.204;2023-02-14T13:22:18;103360.41;;;16.24;97.25
49216;BME280;45943;53.148;8.204;2023-02-14T13:24:49;103360.97;;;16.44;93.99
49216;BME280;45943;53.148;8.204;2023-02-14T13:27:23;103349.22;;;16.72;92.42
49216;BME280;45943;53.148;8.204;2023-02-14T13:29:53;103342.44;;;16.50;94.03
49216;BME280;45943;53.148;8.204;2023-02-14T13:32:25;103345.41;;;16.33;96.21
49216;BME280;45943;53.148;8.204;2023-02-14T13:34:56;103335.94;;;16.12;98.81
49216;BME280;45943;53.148;8.204;2023-02-14T13:37:24;103332.28;;;16.13;99.22
49216;BME280;45943;53.148;8.204;2023-02-14T13:48:15;103317.13;;;15.96;100.00
49216;BME280;45943;53.148;8.204;2023-02-14T13:56:03;103312.34;;;16.55;95.04
49216;BME280;45943;53.148;8.204;2023-02-14T13:58:50;103305.88;;;16.84;91.43
49216;BME280;45943;53.148;8.204;2023-02-14T14:01:40;103305.53;;;16.89;90.17
49216;BME280;45943;53.148;8.204;2023-02-14T14:15:08;103292.91;;;17.15;83.03
49216;BME280;45943;53.148;8.204;2023-02-14T14:22:49;103289.41;;;17.00;79.26
49216;BME280;45943;53.148;8.204;2023-02-14T14:25:31;103283.03;;;17.14;77.31
49216;BME280;45943;53.148;8.204;2023-02-14T14:27:59;103286.75;;;17.26;76.51
49216;BME280;45943;53.148;8.204;2023-02-14T14:30:27;103282.59;;;17.07;83.36
49216;BME280;45943;53.148;8.204;2023-02-14T14:33:13;103283.91;;;17.02;89.63
49216;BME280;45943;53.148;8.204;2023-02-14T14:35:51;103284.81;;;16.75;81.32
49216;BME280;45943;53.148;8.204;2023-02-14T14:38:19;103287.81;;;16.71;81.64
49216;BME280;45943;53.148;8.204;2023-02-14T14:40:45;103289.78;;;16.69;94.10
49216;BME280;45943;53.148;8.204;2023-02-14T14:45:44;103274.44;;;16.68;97.28
49216;BME280;45943;53.148;8.204;2023-02-14T14:48:12;103270.69;;;16.70;100.00
49216;BME280;45943;53.148;8.204;2023-02-14T14:50:43;103271.66;;;16.69;100.00
49216;BME280;45943;53.148;8.204;2023-02-14T14:53:20;103264.91;;;16.62;100.00
49216;BME280;45943;53.148;8.204;2023-02-14T14:55:49;103271.34;;;16.47;100.00
49216;BME280;45943;53.148;8.204;2023-02-14T14:58:36;103272.81;;;16.38;100.00
49216;BME280;45943;53.148;8.204;2023-02-14T15:01:05;103267.00;;;16.44;100.00
49216;BME280;45943;53.148;8.204;2023-02-14T15:03:32;103262.50;;;16.57;100.00
49216;BME280;45943;53.148;8.204;2023-02-14T15:06:07;103265.63;;;16.78;100.00
49216;BME280;45943;53.148;8.204;2023-02-14T15:08:42;103260.44;;;16.88;100.00
49216;BME280;45943;53.148;8.204;2023-02-14T15:11:09;103255.22;;;16.72;100.00
49216;BME280;45943;53.148;8.204;2023-02-14T15:13:59;103254.06;;;16.35;100.00
49216;BME280;45943;53.148;8.204;2023-02-14T15:19:10;103252.25;;;15.80;100.00
49216;BME280;45943;53.148;8.204;2023-02-14T15:21:44;103253.72;;;15.57;100.00
49216;BME280;45943;53.148;8.204;2023-02-14T15:24:14;103254.97;;;15.37;100.00
49216;BME280;45943;53.148;8.204;2023-02-14T15:26:43;103244.63;;;15.30;100.00
49216;BME280;45943;53.148;8.204;2023-02-14T15:29:22;103242.97;;;15.41;100.00
49216;BME280;45943;53.148;8.204;2023-02-14T15:31:52;103238.72;;;15.52;100.00
49216;BME280;45943;53.148;8.204;2023-02-14T15:34:19;103231.97;;;15.44;100.00
49216;BME280;45943;53.148;8.204;2023-02-14T15:36:50;103232.63;;;15.19;100.00
49216;BME280;45943;53.148;8.204;2023-02-14T15:39:36;103225.94;;;14.97;100.00
49216;BME280;45943;53.148;8.204;2023-02-14T15:42:24;103225.03;;;14.82;100.00
49216;BME280;45943;53.148;8.204;2023-02-14T15:45:12;103230.63;;;14.79;100.00
49216;BME280;45943;53.148;8.204;2023-02-14T15:47:40;103230.91;;;14.74;100.00
49216;BME280;45943;53.148;8.204;2023-02-14T15:50:14;103229.56;;;14.67;100.00